sensor_id;sensor_type;location;lat;lon;timestamp;pressure;altitude;pressure_sealevel;temperature;humidity
61761;BME280;47664;51.660;-0.100;2022-10-28T00:01:16;100692.01;;;16.58;64.10
61761;BME280;47664;51.660;-0.100;2022-10-28T00:03:52;100681.62;;;16.69;63.71
61761;BME280;47664;51.660;-0.100;2022-10-28T00:06:26;100680.30;;;16.97;63.63
61761;BME280;47664;51.660;-0.100;2022-10-28T00:08:58;100682.79;;;17.00;63.20
61761;BME280;47664;51.660;-0.100;2022-10-28T00:11:32;100682.71;;;16.95;63.32
61761;BME280;47664;51.660;-0.100;2022-10-28T00:14:06;100690.25;;;16.80;63.13
61761;BME280;47664;51.660;-0.100;2022-10-28T00:16:39;100688.92;;;16.75;62.91
61761;BME280;47664;51.660;-0.100;2022-10-28T00:19:12;100688.63;;;16.68;63.19
61761;BME280;47664;51.660;-0.100;2022-10-28T00:21:45;100692.19;;;16.84;63.61
61761;BME280;47664;51.660;-0.100;2022-10-28T00:24:18;100695.69;;;16.57;64.08
61761;BME280;47664;51.660;-0.100;2022-10-28T00:26:50;100694.49;;;16.81;63.96
61761;BME280;47664;51.660;-0.100;2022-10-28T00:29:23;100692.88;;;16.68;63.23
61761;BME280;47664;51.660;-0.100;2022-10-28T00:31:55;100689.10;;;16.82;63.36
61761;BME280;47664;51.660;-0.100;2022-10-28T00:34:28;100688.51;;;16.85;63.57
61761;BME280;47664;51.660;-0.100;2022-10-28T00:37:00;100684.81;;;16.86;63.00
61761;BME280;47664;51.660;-0.100;2022-10-28T00:39:32;100680.28;;;16.49;62.59
61761;BME280;47664;51.660;-0.100;2022-10-28T00:42:04;100672.19;;;16.73;62.63
61761;BME280;47664;51.660;-0.100;2022-10-28T00:44:52;100674.34;;;16.41;63.27
61761;BME280;47664;51.660;-0.100;2022-10-28T00:47:39;100677.22;;;16.70;63.49
61761;BME280;47664;51.660;-0.100;2022-10-28T00:50:14;100679.03;;;16.56;63.52
61761;BME280;47664;51.660;-0.100;2022-10-28T00:52:51;100678.91;;;16.79;63.31
61761;BME280;47664;51.660;-0.100;2022-10-28T00:55:25;100672.84;;;16.48;63.07
61761;BME280;47664;51.660;-0.100;2022-10-28T00:57:59;100682.97;;;16.56;62.81
61761;BME280;47664;51.660;-0.100;2022-10-28T01:00:32;100679.98;;;16.45;63.17
61761;BME280;47664;51.660;-0.100;2022-10-28T01:03:05;100674.64;;;16.65;62.93
61761;BME280;47664;51.660;-0.100;2022-10-28T01:05:40;100678.78;;;16.48;63.29
61761;BME280;47664;51.660;-0.100;2022-10-28T01:08:12;100679.92;;;16.76;63.24
61761;BME280;47664;51.660;-0.100;2022-10-28T01:10:54;100677.81;;;16.70;63.01
61761;BME280;47664;51.660;-0.100;2022-10-28T01:13:33;100674.73;;;16.51;63.69
61761;BME280;47664;51.660;-0.100;2022-10-28T01:16:09;100669.12;;;16.28;63.23
61761;BME280;47664;51.660;-0.100;2022-10-28T01:18:45;100672.92;;;16.45;63.62
61761;BME280;47664;51.660;-0.100;2022-10-28T01:22:22;100675.35;;;16.58;63.54
61761;BME280;47664;51.660;-0.100;2022-10-28T01:25:03;100671.69;;;16.15;63.95
61761;BME280;47664;51.660;-0.100;2022-10-28T01:30:07;100675.14;;;16.77;63.90
61761;BME280;47664;51.660;-0.100;2022-10-28T01:32:49;100671.77;;;16.32;63.06
61761;BME280;47664;51.660;-0.100;2022-10-28T01:35:21;100664.87;;;16.26;62.84
61761;BME280;47664;51.660;-0.100;2022-10-28T01:38:08;100665.35;;;15.87;64.11
61761;BME280;47664;51.660;-0.100;2022-10-28T01:40:44;100660.96;;;15.83;64.54
61761;BME280;47664;51.660;-0.100;2022-10-28T01:43:16;100653.51;;;16.11;64.53
61761;BME280;47664;51.660;-0.100;2022-10-28T01:45:53;100657.01;;;16.09;64.58
61761;BME280;47664;51.660;-0.100;2022-10-28T01:48:29;100651.20;;;15.96;64.64
61761;BME280;47664;51.660;-0.100;2022-10-28T01:51:02;100641.02;;;16.06;64.17
61761;BME280;47664;51.660;-0.100;2022-10-28T01:53:34;100640.56;;;16.13;63.96
61761;BME280;47664;51.660;-0.100;2022-10-28T01:56:12;100640.19;;;15.95;63.58
61761;BME280;47664;51.660;-0.100;2022-10-28T01:58:47;100648.27;;;16.29;63.94
61761;BME280;47664;51.660;-0.100;2022-10-28T02:01:21;100645.81;;;15.86;64.49
61761;BME280;47664;51.660;-0.100;2022-10-28T02:03:55;100646.67;;;16.25;64.20
61761;BME280;47664;51.660;-0.100;2022-10-28T02:06:31;100642.83;;;16.18;63.90
61761;BME280;47664;51.660;-0.100;2022-10-28T02:09:11;100644.11;;;16.03;64.81
61761;BME280;47664;51.660;-0.100;2022-10-28T02:12:13;100637.62;;;16.30;65.05
61761;BME280;47664;51.660;-0.100;2022-10-28T02:14:57;100641.50;;;16.19;65.62
61761;BME280;47664;51.660;-0.100;2022-10-28T02:17:35;100640.43;;;16.19;66.36
61761;BME280;47664;51.660;-0.100;2022-10-28T02:20:09;100633.85;;;15.54;66.75
61761;BME280;47664;51.660;-0.100;2022-10-28T02:22:48;100625.82;;;15.96;67.29
61761;BME280;47664;51.660;-0.100;2022-10-28T02:25:20;100613.92;;;15.57;68.89
61761;BME280;47664;51.660;-0.100;2022-10-28T02:27:54;100607.15;;;15.44;68.91
61761;BME280;47664;51.660;-0.100;2022-10-28T02:30:27;100600.19;;;15.48;68.70
61761;BME280;47664;51.660;-0.100;2022-10-28T02:33:00;100597.81;;;15.31;68.96
61761;BME280;47664;51.660;-0.100;2022-10-28T02:35:36;100597.69;;;15.32;69.42
61761;BME280;47664;51.660;-0.100;2022-10-28T02:38:08;100591.04;;;14.93;69.91
61761;BME280;47664;51.660;-0.100;2022-10-28T02:40:42;100585.15;;;15.16;70.17
61761;BME280;47664;51.660;-0.100;2022-10-28T02:43:13;100582.74;;;15.25;69.95
61761;BME280;47664;51.660;-0.100;2022-10-28T02:45:45;100582.87;;;15.74;69.51
61761;BME280;47664;51.660;-0.100;2022-10-28T02:48:18;100579.08;;;15.16;69.77
61761;BME280;47664;51.660;-0.100;2022-10-28T02:50:56;100583.57;;;15.22;69.55
61761;BME280;47664;51.660;-0.100;2022-10-28T02:53:30;100578.54;;;15.79;69.31
61761;BME280;47664;51.660;-0.100;2022-10-28T02:56:04;100568.44;;;15.26;69.89
61761;BME280;47664;51.660;-0.100;2022-10-28T02:58:37;100570.84;;;15.19;69.38
61761;BME280;47664;51.660;-0.100;2022-10-28T03:01:10;100567.59;;;15.06;69.50
61761;BME280;47664;51.660;-0.100;2022-10-28T03:03:42;100557.55;;;15.62;69.38
61761;BME280;47664;51.660;-0.100;2022-10-28T03:06:14;100551.55;;;15.28;68.84
61761;BME280;47664;51.660;-0.100;2022-10-28T03:08:46;100548.89;;;15.38;68.42
61761;BME280;47664;51.660;-0.100;2022-10-28T03:11:18;100545.36;;;15.44;68.32
61761;BME280;47664;51.660;-0.100;2022-10-28T03:13:51;100537.14;;;15.51;67.94
61761;BME280;47664;51.660;-0.100;2022-10-28T03:16:23;100529.66;;;15.43;68.25
61761;BME280;47664;51.660;-0.100;2022-10-28T03:18:55;100524.68;;;15.60;68.35
61761;BME280;47664;51.660;-0.100;2022-10-28T03:21:27;100522.97;;;15.24;68.46
61761;BME280;47664;51.660;-0.100;2022-10-28T03:23:59;100518.38;;;15.18;69.10
61761;BME280;47664;51.660;-0.100;2022-10-28T03:26:31;100520.11;;;15.16;69.46
61761;BME280;47664;51.660;-0.100;2022-10-28T03:29:03;100516.50;;;15.24;69.42
61761;BME280;47664;51.660;-0.100;2022-10-28T03:31:36;100510.06;;;15.06;69.83
61761;BME280;47664;51.660;-0.100;2022-10-28T03:34:08;100505.25;;;15.00;69.57
61761;BME280;47664;51.660;-0.100;2022-10-28T03:36:40;100509.67;;;15.30;69.42
61761;BME280;47664;51.660;-0.100;2022-10-28T03:39:12;100509.08;;;15.29;69.25
61761;BME280;47664;51.660;-0.100;2022-10-28T03:41:44;100505.82;;;15.46;68.69
61761;BME280;47664;51.660;-0.100;2022-10-28T03:44:17;100504.57;;;15.25;68.74
61761;BME280;47664;51.660;-0.100;2022-10-28T03:46:49;100495.63;;;15.26;69.42
61761;BME280;47664;51.660;-0.100;2022-10-28T03:49:21;100493.36;;;14.83;69.77
61761;BME280;47664;51.660;-0.100;2022-10-28T03:51:53;100490.53;;;14.86;70.31
61761;BME280;47664;51.660;-0.100;2022-10-28T03:54:25;100489.19;;;15.23;70.10
61761;BME280;47664;51.660;-0.100;2022-10-28T03:56:58;100490.99;;;15.12;69.51
61761;BME280;47664;51.660;-0.100;2022-10-28T03:59:30;100492.02;;;15.58;68.97
61761;BME280;47664;51.660;-0.100;2022-10-28T04:02:02;100490.39;;;15.16;69.47
61761;BME280;47664;51.660;-0.100;2022-10-28T04:04:34;100493.82;;;14.93;69.93
61761;BME280;47664;51.660;-0.100;2022-10-28T04:07:06;100491.79;;;15.26;70.08
61761;BME280;47664;51.660;-0.100;2022-10-28T04:09:39;100488.14;;;14.63;71.77
61761;BME280;47664;51.660;-0.100;2022-10-28T04:12:11;100498.22;;;14.68;71.21
61761;BME280;47664;51.660;-0.100;2022-10-28T04:14:43;100504.80;;;14.72;70.79
61761;BME280;47664;51.660;-0.100;2022-10-28T04:17:16;100503.47;;;15.00;70.30
61761;BME280;47664;51.660;-0.100;2022-10-28T04:19:48;100503.72;;;15.07;69.67
61761;BME280;47664;51.660;-0.100;2022-10-28T04:22:20;100507.85;;;15.60;69.07
61761;BME280;47664;51.660;-0.100;2022-10-28T04:24:51;100505.77;;;15.29;69.11
61761;BME280;47664;51.660;-0.100;2022-10-28T04:27:24;100499.88;;;15.14;69.44
61761;BME280;47664;51.660;-0.100;2022-10-28T04:29:56;100498.06;;;14.69;70.49
61761;BME280;47664;51.660;-0.100;2022-10-28T04:32:29;100494.80;;;14.55;70.97
61761;BME280;47664;51.660;-0.100;2022-10-28T04:35:01;100487.75;;;14.63;71.41
61761;BME280;47664;51.660;-0.100;2022-10-28T04:37:32;100488.66;;;14.82;71.53
61761;BME280;47664;51.660;-0.100;2022-10-28T04:40:06;100480.33;;;14.74;71.24
61761;BME280;47664;51.660;-0.100;2022-10-28T04:42:38;100467.30;;;14.61;71.21
61761;BME280;47664;51.660;-0.100;2022-10-28T04:45:12;100469.52;;;14.29;72.58
61761;BME280;47664;51.660;-0.100;2022-10-28T04:47:44;100463.35;;;14.45;72.74
61761;BME280;47664;51.660;-0.100;2022-10-28T04:50:17;100458.33;;;14.31;72.76
61761;BME280;47664;51.660;-0.100;2022-10-28T04:52:49;100457.97;;;14.23;73.10
61761;BME280;47664;51.660;-0.100;2022-10-28T04:55:22;100454.94;;;14.24;73.10
61761;BME280;47664;51.660;-0.100;2022-10-28T04:57:53;100456.74;;;14.30;73.60
61761;BME280;47664;51.660;-0.100;2022-10-28T05:00:26;100460.72;;;14.51;72.39
61761;BME280;47664;51.660;-0.100;2022-10-28T05:03:00;100460.44;;;14.93;71.43
61761;BME280;47664;51.660;-0.100;2022-10-28T05:05:32;100453.43;;;14.86;71.50
61761;BME280;47664;51.660;-0.100;2022-10-28T05:08:05;100458.38;;;14.93;71.16
61761;BME280;47664;51.660;-0.100;2022-10-28T05:10:37;100456.12;;;14.99;72.76
61761;BME280;47664;51.660;-0.100;2022-10-28T05:13:10;100454.84;;;14.95;71.48
61761;BME280;47664;51.660;-0.100;2022-10-28T05:15:42;100455.44;;;15.07;71.34
61761;BME280;47664;51.660;-0.100;2022-10-28T05:18:15;100449.65;;;14.46;71.30
61761;BME280;47664;51.660;-0.100;2022-10-28T05:20:47;100452.26;;;14.91;71.63
61761;BME280;47664;51.660;-0.100;2022-10-28T05:23:20;100449.72;;;14.51;72.11
61761;BME280;47664;51.660;-0.100;2022-10-28T05:25:52;100457.46;;;14.74;71.63
61761;BME280;47664;51.660;-0.100;2022-10-28T05:28:24;100462.74;;;14.76;71.66
61761;BME280;47664;51.660;-0.100;2022-10-28T05:30:56;100463.72;;;14.58;72.06
61761;BME280;47664;51.660;-0.100;2022-10-28T05:33:28;100465.53;;;14.88;72.31
61761;BME280;47664;51.660;-0.100;2022-10-28T05:36:02;100477.63;;;15.06;71.94
61761;BME280;47664;51.660;-0.100;2022-10-28T05:38:35;100471.91;;;15.29;71.23
61761;BME280;47664;51.660;-0.100;2022-10-28T05:41:07;100485.40;;;14.98;70.65
61761;BME280;47664;51.660;-0.100;2022-10-28T05:43:39;100493.34;;;15.33;70.40
61761;BME280;47664;51.660;-0.100;2022-10-28T05:46:11;100492.84;;;14.92;70.75
61761;BME280;47664;51.660;-0.100;2022-10-28T05:48:43;100488.41;;;15.44;70.83
61761;BME280;47664;51.660;-0.100;2022-10-28T05:51:15;100481.27;;;15.14;71.03
61761;BME280;47664;51.660;-0.100;2022-10-28T05:53:48;100482.58;;;14.90;71.38
61761;BME280;47664;51.660;-0.100;2022-10-28T05:56:20;100476.48;;;15.19;71.51
61761;BME280;47664;51.660;-0.100;2022-10-28T05:58:52;100475.45;;;15.38;70.48
61761;BME280;47664;51.660;-0.100;2022-10-28T06:01:24;100476.07;;;15.19;70.71
61761;BME280;47664;51.660;-0.100;2022-10-28T06:03:56;100474.20;;;15.01;70.63
61761;BME280;47664;51.660;-0.100;2022-10-28T06:06:28;100470.96;;;15.23;70.68
61761;BME280;47664;51.660;-0.100;2022-10-28T06:09:00;100472.07;;;15.26;70.01
61761;BME280;47664;51.660;-0.100;2022-10-28T06:11:33;100480.93;;;15.47;70.02
61761;BME280;47664;51.660;-0.100;2022-10-28T06:14:06;100476.73;;;15.37;70.32
61761;BME280;47664;51.660;-0.100;2022-10-28T06:16:38;100471.93;;;15.69;69.13
61761;BME280;47664;51.660;-0.100;2022-10-28T06:19:11;100471.48;;;15.39;68.98
61761;BME280;47664;51.660;-0.100;2022-10-28T06:21:42;100475.92;;;15.54;69.26
61761;BME280;47664;51.660;-0.100;2022-10-28T06:24:15;100457.53;;;15.55;69.16
61761;BME280;47664;51.660;-0.100;2022-10-28T06:26:47;100461.82;;;15.58;69.05
61761;BME280;47664;51.660;-0.100;2022-10-28T06:29:19;100458.75;;;15.84;68.55
61761;BME280;47664;51.660;-0.100;2022-10-28T06:31:51;100460.91;;;15.87;67.53
61761;BME280;47664;51.660;-0.100;2022-10-28T06:34:23;100480.41;;;15.66;67.52
61761;BME280;47664;51.660;-0.100;2022-10-28T06:36:56;100484.58;;;16.00;67.60
61761;BME280;47664;51.660;-0.100;2022-10-28T06:39:28;100473.00;;;15.73;67.22
61761;BME280;47664;51.660;-0.100;2022-10-28T06:42:01;100474.94;;;16.20;67.01
61761;BME280;47664;51.660;-0.100;2022-10-28T06:44:33;100478.90;;;15.89;66.72
61761;BME280;47664;51.660;-0.100;2022-10-28T06:47:05;100481.02;;;16.04;66.35
61761;BME280;47664;51.660;-0.100;2022-10-28T06:49:37;100476.61;;;16.11;66.56
61761;BME280;47664;51.660;-0.100;2022-10-28T06:52:10;100481.50;;;15.88;66.39
61761;BME280;47664;51.660;-0.100;2022-10-28T06:54:42;100478.70;;;16.20;66.41
61761;BME280;47664;51.660;-0.100;2022-10-28T06:57:14;100485.90;;;15.91;66.79
61761;BME280;47664;51.660;-0.100;2022-10-28T06:59:46;100493.41;;;16.00;67.26
61761;BME280;47664;51.660;-0.100;2022-10-28T07:02:18;100491.99;;;16.28;66.63
61761;BME280;47664;51.660;-0.100;2022-10-28T07:04:50;100497.88;;;16.18;66.00
61761;BME280;47664;51.660;-0.100;2022-10-28T07:07:23;100492.72;;;15.74;66.20
61761;BME280;47664;51.660;-0.100;2022-10-28T07:09:54;100500.53;;;16.02;66.19
61761;BME280;47664;51.660;-0.100;2022-10-28T07:12:26;100498.15;;;16.04;65.54
61761;BME280;47664;51.660;-0.100;2022-10-28T07:14:59;100495.67;;;16.47;65.50
61761;BME280;47664;51.660;-0.100;2022-10-28T07:17:33;100500.70;;;15.84;65.87
61761;BME280;47664;51.660;-0.100;2022-10-28T07:20:05;100518.35;;;15.52;67.89
61761;BME280;47664;51.660;-0.100;2022-10-28T07:22:37;100523.72;;;15.95;67.37
61761;BME280;47664;51.660;-0.100;2022-10-28T07:25:11;100507.18;;;15.81;67.06
61761;BME280;47664;51.660;-0.100;2022-10-28T07:27:43;100510.43;;;16.06;68.00
61761;BME280;47664;51.660;-0.100;2022-10-28T07:30:16;100514.28;;;15.96;67.07
61761;BME280;47664;51.660;-0.100;2022-10-28T07:32:48;100512.59;;;15.61;68.12
61761;BME280;47664;51.660;-0.100;2022-10-28T07:35:20;100514.17;;;16.08;66.93
61761;BME280;47664;51.660;-0.100;2022-10-28T07:37:52;100512.92;;;16.62;65.60
61761;BME280;47664;51.660;-0.100;2022-10-28T07:40:25;100524.25;;;16.26;65.71
61761;BME280;47664;51.660;-0.100;2022-10-28T07:42:57;100524.96;;;16.38;65.41
61761;BME280;47664;51.660;-0.100;2022-10-28T07:45:29;100528.03;;;16.67;64.70
61761;BME280;47664;51.660;-0.100;2022-10-28T07:48:02;100556.57;;;16.59;64.96
61761;BME280;47664;51.660;-0.100;2022-10-28T07:50:34;100574.44;;;16.39;65.35
61761;BME280;47664;51.660;-0.100;2022-10-28T07:53:07;100564.91;;;16.37;65.38
61761;BME280;47664;51.660;-0.100;2022-10-28T07:55:39;100560.41;;;16.26;65.86
61761;BME280;47664;51.660;-0.100;2022-10-28T07:58:11;100551.38;;;16.25;65.93
61761;BME280;47664;51.660;-0.100;2022-10-28T08:00:43;100556.85;;;16.23;66.54
61761;BME280;47664;51.660;-0.100;2022-10-28T08:03:15;100558.58;;;16.26;66.78
61761;BME280;47664;51.660;-0.100;2022-10-28T08:05:47;100561.91;;;16.40;66.77
61761;BME280;47664;51.660;-0.100;2022-10-28T08:08:19;100562.53;;;16.12;67.12
61761;BME280;47664;51.660;-0.100;2022-10-28T08:10:51;100553.81;;;16.60;65.47
61761;BME280;47664;51.660;-0.100;2022-10-28T08:13:23;100555.30;;;16.46;64.97
61761;BME280;47664;51.660;-0.100;2022-10-28T08:15:57;100561.43;;;16.45;65.18
61761;BME280;47664;51.660;-0.100;2022-10-28T08:18:29;100566.34;;;16.24;65.89
61761;BME280;47664;51.660;-0.100;2022-10-28T08:21:03;100568.48;;;16.76;65.39
61761;BME280;47664;51.660;-0.100;2022-10-28T08:23:36;100569.24;;;17.05;64.35
61761;BME280;47664;51.660;-0.100;2022-10-28T08:26:09;100573.95;;;16.11;66.61
61761;BME280;47664;51.660;-0.100;2022-10-28T08:28:41;100577.79;;;17.06;65.07
61761;BME280;47664;51.660;-0.100;2022-10-28T08:31:14;100585.12;;;16.68;65.33
61761;BME280;47664;51.660;-0.100;2022-10-28T08:33:48;100585.93;;;16.74;65.07
61761;BME280;47664;51.660;-0.100;2022-10-28T08:36:20;100591.80;;;16.60;65.61
61761;BME280;47664;51.660;-0.100;2022-10-28T08:38:52;100589.12;;;16.86;64.88
61761;BME280;47664;51.660;-0.100;2022-10-28T08:41:29;100584.17;;;16.79;65.20
61761;BME280;47664;51.660;-0.100;2022-10-28T08:44:13;100590.28;;;16.77;66.47
61761;BME280;47664;51.660;-0.100;2022-10-28T08:46:54;100604.27;;;16.31;67.10
61761;BME280;47664;51.660;-0.100;2022-10-28T08:49:29;100594.89;;;16.16;66.76
61761;BME280;47664;51.660;-0.100;2022-10-28T08:52:01;100600.48;;;16.76;66.30
61761;BME280;47664;51.660;-0.100;2022-10-28T08:54:35;100610.15;;;16.45;66.84
61761;BME280;47664;51.660;-0.100;2022-10-28T08:57:11;100602.90;;;15.57;68.40
61761;BME280;47664;51.660;-0.100;2022-10-28T08:59:49;100593.24;;;16.34;67.76
61761;BME280;47664;51.660;-0.100;2022-10-28T09:02:25;100595.71;;;16.17;68.51
61761;BME280;47664;51.660;-0.100;2022-10-28T09:05:04;100598.73;;;16.46;68.33
61761;BME280;47664;51.660;-0.100;2022-10-28T09:07:38;100605.63;;;16.57;67.91
61761;BME280;47664;51.660;-0.100;2022-10-28T09:10:12;100600.61;;;16.19;67.23
61761;BME280;47664;51.660;-0.100;2022-10-28T09:12:45;100612.85;;;16.60;67.43
61761;BME280;47664;51.660;-0.100;2022-10-28T09:15:25;100618.64;;;16.09;66.49
61761;BME280;47664;51.660;-0.100;2022-10-28T09:18:02;100622.97;;;15.95;66.74
61761;BME280;47664;51.660;-0.100;2022-10-28T09:20:48;100617.07;;;16.52;65.48
61761;BME280;47664;51.660;-0.100;2022-10-28T09:23:22;100621.38;;;16.38;65.37
61761;BME280;47664;51.660;-0.100;2022-10-28T09:25:58;100627.39;;;16.52;63.85
61761;BME280;47664;51.660;-0.100;2022-10-28T09:28:45;100633.46;;;16.13;63.98
61761;BME280;47664;51.660;-0.100;2022-10-28T09:31:23;100626.36;;;16.28;64.06
61761;BME280;47664;51.660;-0.100;2022-10-28T09:34:04;100630.09;;;16.41;63.76
61761;BME280;47664;51.660;-0.100;2022-10-28T09:36:38;100651.70;;;16.69;62.95
61761;BME280;47664;51.660;-0.100;2022-10-28T09:39:14;100661.19;;;16.01;64.31
61761;BME280;47664;51.660;-0.100;2022-10-28T09:41:49;100665.07;;;16.31;64.93
61761;BME280;47664;51.660;-0.100;2022-10-28T09:44:25;100664.01;;;16.21;64.01
61761;BME280;47664;51.660;-0.100;2022-10-28T09:47:02;100664.76;;;16.42;63.12
61761;BME280;47664;51.660;-0.100;2022-10-28T09:49:41;100656.81;;;16.53;62.81
61761;BME280;47664;51.660;-0.100;2022-10-28T09:52:14;100664.21;;;16.32;61.51
61761;BME280;47664;51.660;-0.100;2022-10-28T09:54:49;100672.60;;;16.04;63.43
61761;BME280;47664;51.660;-0.100;2022-10-28T09:57:23;100681.22;;;16.15;63.07
61761;BME280;47664;51.660;-0.100;2022-10-28T10:00:02;100689.77;;;16.51;61.04
61761;BME280;47664;51.660;-0.100;2022-10-28T10:02:35;100703.47;;;16.48;61.89
61761;BME280;47664;51.660;-0.100;2022-10-28T10:05:11;100705.08;;;16.13;61.60
61761;BME280;47664;51.660;-0.100;2022-10-28T10:07:47;100708.66;;;15.91;62.60
61761;BME280;47664;51.660;-0.100;2022-10-28T10:10:22;100713.00;;;15.82;62.40
61761;BME280;47664;51.660;-0.100;2022-10-28T10:12:57;100719.21;;;16.22;61.74
61761;BME280;47664;51.660;-0.100;2022-10-28T10:15:28;100720.98;;;15.51;62.98
61761;BME280;47664;51.660;-0.100;2022-10-28T10:18:03;100720.42;;;15.85;62.70
61761;BME280;47664;51.660;-0.100;2022-10-28T10:20:47;100723.41;;;15.89;63.04
61761;BME280;47664;51.660;-0.100;2022-10-28T10:23:26;100724.10;;;15.88;63.01
61761;BME280;47664;51.660;-0.100;2022-10-28T10:26:02;100734.34;;;16.35;61.80
61761;BME280;47664;51.660;-0.100;2022-10-28T10:28:36;100734.68;;;16.13;62.68
61761;BME280;47664;51.660;-0.100;2022-10-28T10:31:15;100739.73;;;15.64;62.13
61761;BME280;47664;51.660;-0.100;2022-10-28T10:33:48;100745.93;;;16.06;61.69
61761;BME280;47664;51.660;-0.100;2022-10-28T10:36:22;100748.82;;;16.15;62.21
61761;BME280;47664;51.660;-0.100;2022-10-28T10:38:56;100751.24;;;16.47;61.39
61761;BME280;47664;51.660;-0.100;2022-10-28T10:41:32;100756.35;;;16.39;61.13
61761;BME280;47664;51.660;-0.100;2022-10-28T10:44:23;100760.68;;;16.43;61.03
61761;BME280;47664;51.660;-0.100;2022-10-28T10:47:15;100775.81;;;16.48;61.26
61761;BME280;47664;51.660;-0.100;2022-10-28T10:49:49;100785.27;;;16.46;60.01
61761;BME280;47664;51.660;-0.100;2022-10-28T10:52:23;100792.48;;;16.51;59.84
61761;BME280;47664;51.660;-0.100;2022-10-28T10:55:01;100797.87;;;16.84;59.93
61761;BME280;47664;51.660;-0.100;2022-10-28T10:57:35;100800.09;;;16.92;59.23
61761;BME280;47664;51.660;-0.100;2022-10-28T11:00:13;100801.81;;;16.22;59.90
61761;BME280;47664;51.660;-0.100;2022-10-28T11:02:45;100802.49;;;15.90;59.78
61761;BME280;47664;51.660;-0.100;2022-10-28T11:05:20;100805.73;;;15.93;60.78
61761;BME280;47664;51.660;-0.100;2022-10-28T11:07:54;100798.39;;;15.91;60.02
61761;BME280;47664;51.660;-0.100;2022-10-28T11:10:29;100806.36;;;15.82;60.20
61761;BME280;47664;51.660;-0.100;2022-10-28T11:13:05;100810.65;;;15.90;59.16
61761;BME280;47664;51.660;-0.100;2022-10-28T11:15:58;100816.92;;;16.03;60.02
61761;BME280;47664;51.660;-0.100;2022-10-28T11:18:38;100815.07;;;15.86;59.86
61761;BME280;47664;51.660;-0.100;2022-10-28T11:21:13;100814.84;;;15.87;57.71
61761;BME280;47664;51.660;-0.100;2022-10-28T11:23:53;100816.69;;;16.18;59.29
61761;BME280;47664;51.660;-0.100;2022-10-28T11:26:29;100817.34;;;16.01;58.86
61761;BME280;47664;51.660;-0.100;2022-10-28T11:29:07;100821.72;;;16.12;58.73
61761;BME280;47664;51.660;-0.100;2022-10-28T11:32:02;100820.67;;;16.42;58.03
61761;BME280;47664;51.660;-0.100;2022-10-28T11:34:46;100828.26;;;16.42;57.88
61761;BME280;47664;51.660;-0.100;2022-10-28T11:37:23;100835.68;;;16.18;58.03
61761;BME280;47664;51.660;-0.100;2022-10-28T11:40:04;100838.82;;;16.61;57.44
61761;BME280;47664;51.660;-0.100;2022-10-28T11:42:40;100840.24;;;15.99;58.08
61761;BME280;47664;51.660;-0.100;2022-10-28T11:45:20;100847.02;;;15.90;57.73
61761;BME280;47664;51.660;-0.100;2022-10-28T11:48:04;100850.48;;;16.07;58.43
61761;BME280;47664;51.660;-0.100;2022-10-28T11:50:46;100838.32;;;16.92;57.10
61761;BME280;47664;51.660;-0.100;2022-10-28T11:53:30;100838.33;;;16.26;57.47
61761;BME280;47664;51.660;-0.100;2022-10-28T11:56:10;100836.80;;;16.14;57.68
61761;BME280;47664;51.660;-0.100;2022-10-28T11:58:50;100847.09;;;16.43;57.84
61761;BME280;47664;51.660;-0.100;2022-10-28T12:01:31;100852.77;;;16.42;57.60
61761;BME280;47664;51.660;-0.100;2022-10-28T12:04:24;100854.12;;;16.37;57.43
61761;BME280;47664;51.660;-0.100;2022-10-28T12:07:09;100851.33;;;17.16;56.37
61761;BME280;47664;51.660;-0.100;2022-10-28T12:09:56;100855.28;;;17.33;56.28
61761;BME280;47664;51.660;-0.100;2022-10-28T12:12:31;100848.99;;;17.40;56.26
61761;BME280;47664;51.660;-0.100;2022-10-28T12:15:13;100851.59;;;17.39;55.84
61761;BME280;47664;51.660;-0.100;2022-10-28T12:17:46;100843.95;;;17.35;54.24
61761;BME280;47664;51.660;-0.100;2022-10-28T12:20:18;100834.90;;;16.82;55.43
61761;BME280;47664;51.660;-0.100;2022-10-28T12:22:55;100842.05;;;16.71;56.13
61761;BME280;47664;51.660;-0.100;2022-10-28T12:25:32;100842.50;;;16.63;56.83
61761;BME280;47664;51.660;-0.100;2022-10-28T12:28:15;100850.29;;;17.07;56.25
61761;BME280;47664;51.660;-0.100;2022-10-28T12:30:50;100856.92;;;17.02;55.76
61761;BME280;47664;51.660;-0.100;2022-10-28T12:33:25;100852.22;;;16.93;56.18
61761;BME280;47664;51.660;-0.100;2022-10-28T12:36:11;100855.76;;;17.06;56.24
61761;BME280;47664;51.660;-0.100;2022-10-28T12:38:51;100855.46;;;16.91;57.11
61761;BME280;47664;51.660;-0.100;2022-10-28T12:41:39;100857.76;;;16.12;57.69
61761;BME280;47664;51.660;-0.100;2022-10-28T12:44:17;100864.27;;;16.14;58.24
61761;BME280;47664;51.660;-0.100;2022-10-28T12:46:53;100866.35;;;16.96;56.55
61761;BME280;47664;51.660;-0.100;2022-10-28T12:49:35;100869.82;;;16.57;56.74
61761;BME280;47664;51.660;-0.100;2022-10-28T12:52:15;100869.18;;;16.56;56.70
61761;BME280;47664;51.660;-0.100;2022-10-28T12:54:53;100868.93;;;16.88;56.10
61761;BME280;47664;51.660;-0.100;2022-10-28T12:57:29;100872.32;;;16.82;55.87
61761;BME280;47664;51.660;-0.100;2022-10-28T13:00:03;100884.24;;;17.24;55.12
61761;BME280;47664;51.660;-0.100;2022-10-28T13:02:36;100883.54;;;17.01;54.96
61761;BME280;47664;51.660;-0.100;2022-10-28T13:05:19;100884.19;;;17.26;55.18
61761;BME280;47664;51.660;-0.100;2022-10-28T13:09:06;100880.82;;;16.64;54.43
61761;BME280;47664;51.660;-0.100;2022-10-28T13:12:58;100892.77;;;16.78;54.67
61761;BME280;47664;51.660;-0.100;2022-10-28T13:15:45;100890.37;;;16.72;54.51
61761;BME280;47664;51.660;-0.100;2022-10-28T13:18:28;100895.09;;;16.65;53.98
61761;BME280;47664;51.660;-0.100;2022-10-28T13:21:05;100897.46;;;16.87;54.90
61761;BME280;47664;51.660;-0.100;2022-10-28T13:23:42;100901.25;;;16.78;54.60
61761;BME280;47664;51.660;-0.100;2022-10-28T13:26:20;100907.11;;;16.92;54.71